De Bilt, Netherlands
Current Conditions -  °F | °C
As of 9:25 PM on Thursday 20 Nov 2014 (Local Time) from EHAM Reporting Station
Overcast Overcast  
Wind Chill: 40°   Ceiling: 900
Heat Index: 45°   Visibility: 4mi
Dew Point: 41°   Wind: 8mph
Humidity: 87%   Direction: 90°E
Pressure: 30.3"   Gusts: NA
Location:  52.14°N, 5.16°E
Report Text: EHAM 202025Z 09007KT 6000 SCT008 OVC009 07/05 Q1026 NOSIG
Loading
Personal Weather Stations






























Interactive Weather Map New forecast layout! Learn more

10-Day Weather Forecast

Advertisements
Track Severe Weather on mobile